Tiempo atmosférico en la estación meteorológica de Cuéllar, Segovia (795 m.)



Fecha
DESCASC
Temp. máxima en grados centígrados (hora)
DESCASC
Temp. mínima en grados centígrados (hora)
DESCASC
Temp. media en grados centígrados
DESCASC
Racha de viento máxima en m/sg (hora)
DESCASC
Velocidad máxima media en intervalos de 10 minutos(hora)
DESCASC
Precipitaciones diarias en mm
DESCASC
Precipitaciones de 00:00 a 06:00 en mm
DESCASC
Precipitaciones de 06:00 a 12:00 en mm
DESCASC
Precipitaciones de 12:00 a 18:00 en mm
DESCASC
Precipitaciones de 18:00 a 24:00 en mm
DESCASC
13-10-2019 25.8 (15:40) 9.2 (07:00) 17.5 11.94 (18:00) 7.5 (15:20) 0 0 0 0 0
12-10-2019 27.4 (16:00) 13.2 (04:00) 20.3 15.28 (14:20) 8.06 (18:00) 0 0 0 0 0
10-10-2019 28 (17:30) 4.5 (00:00) 16.3 6.94 (04:50) 5 (04:40) 0 0 0 0 0
09-10-2019 24.8 (16:30) 6 (00:00) 15.4 7.22 (15:00) 5.28 (19:40) 0 0 0 0 0
08-10-2019 29.9 (17:30) 3.3 (00:00) 16.6 7.22 (16:10) 4.17 (16:10) 0 0 0 0 0
07-10-2019 28.7 (18:30) 3.6 (00:00) 16.2 5 (15:10) 3.61 (02:00) 0 0 0 0 0
06-10-2019 25.8 (16:00) 0.4 (00:00) 13.1 6.11 (18:40) 3.89 (18:20) 0 0 0 0 0
05-10-2019 26.3 (15:30) 2.3 (07:10) 14.3 7.22 (16:30) 3.89 (16:30) 0 0 0 0 0
04-10-2019 25.1 (16:20) 1.1 (00:00) 13.1 7.5 (17:30) 4.17 (18:00) 0 0 0 0 0
03-10-2019 24.7 (16:20) 0.3 (00:00) 12.5 6.94 (16:20) 4.17 (16:30) 0 0 0 0 0
02-10-2019 22.8 (18:10) -1 (-00:0) 10.9 6.67 (15:00) 3.33 (14:50) 0 0 0 0 0
01-10-2019 23.4 (15:50) 4.5 (00:00) 13.9 9.72 (16:10) 5.56 (15:40) 0 0 0 0 0
30-09-2019 29.5 (17:50) 3.3 (00:00) 16.4 7.22 (17:10) 3.61 (16:40) 0 0 0 0 0
29-09-2019 28.9 (17:30) 1.1 (00:00) 15 9.44 (14:00) 4.72 (14:10) 0 0 0 0 0
28-09-2019 28.5 (18:10) 1.9 (00:00) 15.2 5.83 (15:00) 3.33 (15:00) 0 0 0 0 0
27-09-2019 26.4 (17:30) 0.9 (00:00) 13.6 8.06 (15:00) 4.17 (15:00) 0 0 0 0 0
26-09-2019 27 (16:40) 3.8 (00:00) 15.4 8.06 (16:00) 5.28 (16:00) 0 0 0 0 0
25-09-2019 22 (17:00) 2.9 (00:00) 12.5 5.83 (18:40) 3.33 (18:30) 0 0 0 0 0
24-09-2019 22 (16:50) 3.5 (00:00) 12.8 10.56 (17:50) 6.39 (17:50) 0 0 0 0 0
23-09-2019 22.7 (17:10) 1.7 (00:00) 12.2 11.11 (13:50) 3.61 (18:40) 0 0 0 0 0
22-09-2019 20.8 (17:30) 6.1 (00:00) 13.4 11.11 (03:40) 6.11 (03:50) 3.8 3.6 0.2 0 0
21-09-2019 21.7 (13:00) 7.4 (00:00) 14.6 10.28 (18:40) 5.83 (13:50) 0.4 0 0 0.4 0
20-09-2019 27.1 (16:10) 9.3 (00:00) 18.2 13.33 (17:00) 6.67 (16:00) 0 0 0 0 0
19-09-2019 28.7 (16:00) 7.4 (00:00) 18.1 7.78 (14:10) 3.61 (17:40) 0 0 0 0 0
18-09-2019 26.5 (17:20) 11.8 (00:00) 19.2 5.83 (04:20) 4.17 (04:20) 0 0 0 0 0
17-09-2019 30.9 (17:00) 8.5 (00:00) 19.7 13.89 (21:30) 6.39 (21:30) 2.4 0 0 0 2.4
16-09-2019 25.3 (14:50) 9.3 (00:00) 17.3 5.56 (14:30) 3.33 (14:30) 0 0 0 0 0
15-09-2019 21.5 (17:00) 13.6 (00:00) 17.6 10.56 (17:50) 7.5 (17:50) 7 0 3.8 3.2 0

Gráficas

Temp. máximas Temp. mínimas Temp. medias Precipitaciones Rachas de viento máximas Velocidades máximas media en intervalos de 10 minutos

Datos horarios

Fecha y hora oficial Temperatura (ºC) Velocidad del viento (km/h) Dirección del viento Racha (km/h) Dirección de racha Precipitación (mm) Presión (hPa) Tendencia (hPa) Humedad (%)
2019-10-14 23:00:00 6 7 Oeste 18 Sudoeste 0 -- -- 91
2019-10-14 22:00:00 7 4 Sudoeste 18 Sudoeste 0.2 -- -- 93
2019-10-14 21:00:00 6.9 4 Oeste 15 Sudoeste 0 -- -- 94
2019-10-14 20:00:00 8.3 8 Sudoeste 15 Sudoeste 0 -- -- 93
2019-10-14 19:00:00 8.9 9 Sudoeste 19 Sur 0.4 -- -- 92
2019-10-14 18:00:00 8.9 7 Sudoeste 42 Oeste 1.6 -- -- 93
2019-10-14 17:00:00 10.4 23 Oeste 46 Sudoeste 0.2 -- -- 86
2019-10-14 16:00:00 14 24 Oeste 44 Sudoeste 0 -- -- 68
2019-10-14 15:00:00 15.8 19 Sudoeste 43 Sudoeste 0 -- -- 56
2019-10-14 14:00:00 16.9 23 Sudoeste 39 Oeste 0.2 -- -- 55
2019-10-14 13:00:00 14.7 15 Sudoeste 31 Sudoeste 0 -- -- 75
2019-10-14 12:00:00 11.5 12 Sudoeste 29 Oeste 1 -- -- 90
2019-10-14 11:00:00 11.1 23 Oeste 43 Sudoeste 0.6 -- -- 89
2019-10-14 10:00:00 17.4 21 Sudoeste 51 Sudoeste 0 -- -- 53
2019-10-14 09:00:00 17.7 13 Sur 26 Sudoeste 0 -- -- 57
2019-10-14 08:00:00 18.6 23 Sur 37 Sur 0 -- -- 54
2019-10-14 07:00:00 18.6 13 Sur 26 Sur 0 -- -- 51
2019-10-14 06:00:00 18.5 8 Sur 17 Sur 0 -- -- 51
2019-10-14 05:00:00 19.3 11 Sur 27 Sudeste 0 -- -- 48
2019-10-14 04:00:00 15.9 5 Sur 13 Sur 0 -- -- 60
2019-10-14 03:00:00 11 3 Este 6 Este 0 -- -- 74
2019-10-14 02:00:00 10.5 2 Sudeste 5 Este 0 -- -- 74
2019-10-14 01:00:00 9 5 Este 10 Este 0 -- -- 78
2019-10-14 00:00:00 10.6 3 Sudeste 8 Nordeste 0 -- -- 71
2019-10-13 23:00:00 12.2 4 Este 8 Sur 0 -- -- 66
2019-10-13 22:00:00 16.6 5 Sur 17 Sudeste 0 -- -- 54
2019-10-13 21:00:00 18.7 15 Sur 31 Sur 0 -- -- 48
2019-10-13 20:00:00 20 18 Sur 35 Sudoeste 0 -- -- 44
2019-10-13 19:00:00 22.5 23 Sur 41 Sur 0 -- -- 36
2019-10-13 18:00:00 24.1 26 Sur 43 Sur 0 -- -- 32
2019-10-13 17:00:00 25.4 21 Sur 40 Sur 0 -- -- 31
2019-10-13 16:00:00 25 20 Sur 42 Sur 0 -- -- 31
2019-10-13 15:00:00 25 23 Sur 37 Sur 0 -- -- 33
2019-10-13 14:00:00 24 19 Sur 41 Sur 0 -- -- 34
2019-10-13 13:00:00 23 19 Sudoeste 36 Sudoeste 0 -- -- 41
2019-10-13 12:00:00 20.6 9 Sudoeste 23 Sur 0 -- -- 57
2019-10-13 11:00:00 18.1 7 Oeste 21 Oeste 0 -- -- 67
2019-10-13 10:00:00 15.6 10 Oeste 20 Oeste 0 -- -- 76
2019-10-13 09:00:00 12.9 4 Oeste 14 Oeste 0 -- -- 84
2019-10-13 08:00:00 13 5 Oeste 10 Sur 0 -- -- 82
2019-10-13 07:00:00 9.2 0 Calma 5 Nordeste 0 -- -- 82
2019-10-13 06:00:00 11.9 5 Nordeste 10 Sudoeste 0 -- -- 72
2019-10-13 05:00:00 16.9 6 Sur 22 Sudoeste 0 -- -- 59
2019-10-13 04:00:00 18.6 14 Sur 35 Sur 0 -- -- 53
2019-10-13 03:00:00 19.1 16 Sur 41 Sudeste 0 -- -- 49
2019-10-13 02:00:00 19.5 16 Sur 31 Sur 0 -- -- 46
2019-10-13 01:00:00 19.3 17 Sur 33 Sur 0 -- -- 46
2019-10-13 00:00:00 19.5 20 Sudeste 37 Sudeste 0 -- -- 47
2019-10-12 23:00:00 19.7 16 Sur 27 Sudeste 0 -- -- 49
2019-10-12 22:00:00 18.8 10 Sudeste 23 Sudeste 0 -- -- 50
2019-10-12 21:00:00 21 15 Sudeste 38 Sur 0 -- -- 45
2019-10-12 20:00:00 23.5 28 Sur 44 Sur 0 -- -- 38
2019-10-12 19:00:00 25.3 20 Sur 45 Sur 0 -- -- 36
2019-10-12 18:00:00 26.6 29 Sur 48 Sur 0 -- -- 34
2019-10-12 17:00:00 25.8 18 Sur 38 Sur 0 -- -- 35
2019-10-12 16:00:00 27.4 20 Sur 37 Sudoeste 0 -- -- 31
2019-10-12 15:00:00 26.1 20 Sur 55 Sur 0 -- -- 33
2019-10-12 14:00:00 25.8 17 Sudoeste 40 Sur 0 -- -- 33
2019-10-12 13:00:00 25.7 15 Sur 31 Sur 0 -- -- 34
2019-10-12 12:00:00 24.8 13 Sur 35 Sur 0 -- -- 38
2019-10-12 11:00:00 23.6 14 Sur 26 Sur 0 -- -- 42
2019-10-12 10:00:00 21.2 13 Sur 23 Sur 0 -- -- 48
2019-10-12 09:00:00 18.6 5 Sudeste 25 Sudoeste 0 -- -- 58
2019-10-12 08:00:00 15 0 Calma 14 Sur 0 -- -- 76
2019-10-12 07:00:00 14.4 6 Este 9 Sudeste 0 -- -- 77
2019-10-12 06:00:00 16.7 5 Oeste 12 Oeste 0 -- -- 68
2019-10-12 05:00:00 14.7 2 Noroeste 8 Sur 0 -- -- 78
2019-10-12 04:00:00 13.2 4 Este 8 Este 0 -- -- 81
2019-10-12 03:00:00 14.1 5 Este 10 Este 0 -- -- 77
2019-10-12 02:00:00 14.2 0 Calma 6 Sudeste 0 -- -- 78
2019-10-12 01:00:00 13.3 4 Este 7 Este 0 -- -- 78
2019-10-12 00:00:00 14.3 0 Calma 4 Sur 0 -- -- 78
2019-10-11 23:00:00 17.1 2 Sudoeste 7 Sur 0 -- -- 66
2019-10-11 22:00:00 20.6 3 Sudoeste 18 Sur 0 -- -- 58
2019-10-11 21:00:00 22.7 12 Sur 28 Sur 0 -- -- 51
2019-10-11 20:00:00 23.8 14 Sur 30 Sur 0 -- -- 48
2019-10-11 19:00:00 25.7 17 Sur 36 Sur 0 -- -- 42
2019-10-11 18:00:00 27.7 16 Sur 33 Sudoeste 0 -- -- 37
2019-10-11 17:00:00 28.4 18 Sur 32 Sur 0 -- -- 35
2019-10-11 16:00:00 28.1 11 Sudoeste 27 Sudoeste 0 -- -- 35
2019-10-11 15:00:00 28 5 Sudoeste 19 Sur 0 -- -- 36
2019-10-11 14:00:00 28.5 8 Noroeste 15 Sur 0 -- -- 35
2019-10-11 13:00:00 27.2 6 Noroeste 14 Oeste 0 -- -- 40
2019-10-11 12:00:00 24.8 2 Sudoeste 5 Oeste 0 -- -- 47
2019-10-11 11:00:00 20.8 3 Este 8 Este 0 -- -- 53
2019-10-11 10:00:00 14.5 2 Sudeste 5 Este 0 -- -- 67
2019-10-11 09:00:00 5.7 4 Sudeste 5 Este 0 -- -- 88
2019-10-11 08:00:00 4.2 6 Este 6 Este 0 -- -- 89
2019-10-11 07:00:00 3.5 4 Este 6 Sudeste 0 -- -- 90
2019-10-11 06:00:00 4.1 4 Este 8 Este 0 -- -- 89
2019-10-11 05:00:00 3.8 3 Sudeste 5 Sudeste 0 -- -- 84
2019-10-11 04:00:00 4.6 3 Este 10 Este 0 -- -- 85
2019-10-11 03:00:00 4.3 4 Este 7 Sudeste 0 -- -- 83
2019-10-11 02:00:00 5.2 2 Sudeste 5 Este 0 -- -- 79
2019-10-11 01:00:00 5.9 4 Sudeste 7 Este 0 -- -- 78
2019-10-11 00:00:00 7.2 5 Este 6 Este 0 -- -- 77
2019-10-10 23:00:00 8.4 2 Sudeste 5 Sudeste 0 -- -- 69
2019-10-10 22:00:00 10.7 3 Sudeste 10 Nordeste 0 -- -- 63
2019-10-10 21:00:00 16 6 Este 8 Este 0 -- -- 48
2019-10-10 20:00:00 18.3 8 Norte 9 Norte 0 -- -- 39
2019-10-10 19:00:00 26.6 5 Norte 11 Norte 0 -- -- 28
2019-10-10 18:00:00 27.3 4 Noroeste 11 Nordeste 0 -- -- 27
2019-10-10 17:00:00 26.3 8 Norte 15 Norte 0 -- -- 29
2019-10-10 16:00:00 26.1 8 Norte 17 Nordeste 0 -- -- 30
2019-10-10 15:00:00 24.9 6 Este 20 Nordeste 0 -- -- 30
2019-10-10 14:00:00 23.4 10 Norte 21 Norte 0 -- -- 37
2019-10-10 13:00:00 21.9 7 Nordeste 14 Este 0 -- -- 42
2019-10-10 12:00:00 18.3 6 Este 17 Este 0 -- -- 50
2019-10-10 11:00:00 14.9 4 Este 17 Este 0 -- -- 61
2019-10-10 10:00:00 11.2 10 Este 16 Nordeste 0 -- -- 75
2019-10-10 09:00:00 8.1 10 Nordeste 23 Norte 0 -- -- 85
2019-10-10 08:00:00 5.7 8 Este 14 Este 0 -- -- 96
2019-10-10 07:00:00 7.3 7 Este 13 Este 0 -- -- 88
2019-10-10 06:00:00 7.7 7 Este 22 Nordeste 0 -- -- 88
2019-10-10 05:00:00 8.5 18 Norte 25 Norte 0 -- -- 85
2019-10-10 04:00:00 8.4 14 Norte 19 Norte 0 -- -- 86
2019-10-10 03:00:00 7.6 7 Este 15 Nordeste 0 -- -- 86
2019-10-10 02:00:00 8.1 4 Este 12 Este 0 -- -- 83
2019-10-10 01:00:00 8.2 6 Este 13 Este 0 -- -- 82
2019-10-10 00:00:00 9.8 5 Este 11 Nordeste 0 -- -- 77
2019-10-09 23:00:00 11.9 8 Nordeste 19 Nordeste 0 -- -- 68
2019-10-09 22:00:00 13.9 15 Nordeste 23 Norte 0 -- -- 61
2019-10-09 21:00:00 15.4 16 Nordeste 22 Nordeste 0 -- -- 54
2019-10-09 20:00:00 17.8 17 Nordeste 25 Nordeste 0 -- -- 47
2019-10-09 19:00:00 22.9 12 Norte 21 Norte 0 -- -- 33
2019-10-09 18:00:00 24.7 9 Norte 17 Norte 0 -- -- 34
2019-10-09 17:00:00 24.4 10 Noroeste 16 Norte 0 -- -- 36
2019-10-09 16:00:00 24.2 7 Oeste 25 Noroeste 0 -- -- 38
2019-10-09 15:00:00 23.7 10 Noroeste 26 Norte 0 -- -- 42
2019-10-09 14:00:00 22.7 5 Sudoeste 16 Nordeste 0 -- -- 45
2019-10-09 13:00:00 21.3 8 Oeste 17 Noroeste 0 -- -- 51
2019-10-09 12:00:00 20.2 4 Oeste 12 Este 0 -- -- 58
2019-10-09 11:00:00 17.7 7 Este 11 Este 0 -- -- 70
2019-10-09 10:00:00 13.8 0 Calma 6 Oeste 0 -- -- 81
2019-10-09 09:00:00 9.1 0 Calma 4 Este 0 -- -- 88
2019-10-09 08:00:00 9.6 3 Nordeste 5 Este 0 -- -- 84
2019-10-09 07:00:00 8.9 0 Calma 4 Sudeste 0 -- -- 85
2019-10-09 06:00:00 7 0 Calma 3 Oeste 0 -- -- 88
2019-10-09 05:00:00 6 2 Sudeste 4 Sudeste 0 -- -- 87
2019-10-09 04:00:00 6.9 0 Calma 4 Sudeste 0 -- -- 86
2019-10-09 03:00:00 7.8 3 Sudeste 4 Sudeste 0 -- -- 82
2019-10-09 02:00:00 8.7 0 Calma 4 Este 0 -- -- 77
2019-10-09 01:00:00 9.4 2 Este 5 Sudeste 0 -- -- 77
2019-10-09 00:00:00 10.7 3 Sudeste 5 Sudeste 0 -- -- 71
2019-10-08 23:00:00 12.2 3 Este 4 Este 0 -- -- 67
2019-10-08 22:00:00 14.1 0 Calma 3 Oeste 0 -- -- 64
2019-10-08 21:00:00 16.7 3 Sudoeste 10 Oeste 0 -- -- 55
2019-10-08 20:00:00 23.2 4 Noroeste 18 Oeste 0 -- -- 40
2019-10-08 19:00:00 27.8 11 Oeste 19 Oeste 0 -- -- 32
2019-10-08 18:00:00 29.6 9 Oeste 21 Oeste 0 -- -- 29
2019-10-08 17:00:00 29.3 10 Oeste 26 Sudoeste 0 -- -- 29
2019-10-08 16:00:00 29.5 12 Sudoeste 25 Sudoeste 0 -- -- 29
2019-10-08 15:00:00 28.7 12 Oeste 23 Sudoeste 0 -- -- 30
2019-10-08 14:00:00 27.4 10 Oeste 18 Oeste 0 -- -- 31
2019-10-08 13:00:00 25.8 9 Sudoeste 14 Oeste 0 -- -- 33
2019-10-08 12:00:00 23.8 6 Sudoeste 13 Sudoeste 0 -- -- 37
2019-10-08 11:00:00 20.3 3 Oeste 7 Este 0 -- -- 46
2019-10-08 10:00:00 15.2 4 Sudeste 6 Este 0 -- -- 58
2019-10-08 09:00:00 6.8 4 Este 6 Este 0 -- -- 81
2019-10-08 08:00:00 3.9 3 Este 5 Sudeste 0 -- -- 87
2019-10-08 07:00:00 3.5 4 Este 7 Este 0 -- -- 88
2019-10-08 06:00:00 4.3 3 Sudeste 5 Este 0 -- -- 82
2019-10-08 05:00:00 4.9 3 Sudeste 7 Sudeste 0 -- -- 84
2019-10-08 04:00:00 4.7 5 Este 8 Este 0 -- -- 81
2019-10-08 03:00:00 5.9 5 Este 7 Sudeste 0 -- -- 79
2019-10-08 02:00:00 7.2 3 Sudeste 6 Este 0 -- -- 74
2019-10-08 01:00:00 7.8 5 Este 8 Sudeste 0 -- -- 73
2019-10-08 00:00:00 8.6 5 Nordeste 13 Este 0 -- -- 71
2019-10-07 23:00:00 10.7 2 Sudeste 14 Este 0 -- -- 63
2019-10-07 22:00:00 12.7 8 Este 15 Este 0 -- -- 59
2019-10-07 21:00:00 15.3 3 Este 8 Norte 0 -- -- 50
2019-10-07 20:00:00 20.7 7 Norte 10 Norte 0 -- -- 36
2019-10-07 19:00:00 26.7 8 Norte 12 Norte 0 -- -- 29
2019-10-07 18:00:00 28.5 5 Norte 17 Norte 0 -- -- 27
2019-10-07 17:00:00 27.5 8 Noroeste 17 Norte 0 -- -- 27
2019-10-07 16:00:00 26.9 8 Noroeste 18 Noroeste 0 -- -- 25
2019-10-07 15:00:00 26.6 6 Nordeste 15 Nordeste 0 -- -- 25
2019-10-07 14:00:00 24.9 8 Norte 14 Norte 0 -- -- 27
2019-10-07 13:00:00 22.8 5 Oeste 12 Oeste 0 -- -- 34
2019-10-07 12:00:00 21.2 4 Noroeste 14 Oeste 0 -- -- 40
2019-10-07 11:00:00 18 2 Sudoeste 8 Este 0 -- -- 50
2019-10-07 10:00:00 13.4 4 Este 6 Este 0 -- -- 64
2019-10-07 09:00:00 7.3 0 Calma 9 Este 0 -- -- 86
2019-10-07 08:00:00 4.7 8 Este 12 Este 0 -- -- 95
2019-10-07 07:00:00 4.1 4 Sudeste 6 Sudeste 0 -- -- 94
2019-10-07 06:00:00 4.7 4 Este 8 Norte 0 -- -- 93
2019-10-07 05:00:00 5.5 4 Este 6 Sudeste 0 -- -- 90
2019-10-07 04:00:00 6.7 5 Sudeste 10 Nordeste 0 -- -- 86
2019-10-07 03:00:00 6.4 4 Este 16 Este 0 -- -- 86
2019-10-07 02:00:00 12.1 13 Norte 18 Norte 0 -- -- 80
2019-10-07 01:00:00 10.9 9 Nordeste 13 Nordeste 0 -- -- 78
2019-10-07 00:00:00 7.6 3 Nordeste 10 Este 0 -- -- 77
2019-10-06 23:00:00 8.7 0 Calma 5 Sudeste 0 -- -- 72
2019-10-06 22:00:00 10.1 3 Sudeste 5 Sur 0 -- -- 70
2019-10-06 21:00:00 13.6 0 Calma 10 Noroeste 0 -- -- 62
2019-10-06 20:00:00 18.8 8 Noroeste 19 Oeste 0 -- -- 46
2019-10-06 19:00:00 23.2 12 Noroeste 22 Oeste 0 -- -- 33
2019-10-06 18:00:00 24.8 13 Noroeste 22 Sudoeste 0 -- -- 31
2019-10-06 17:00:00 25.5 10 Sudoeste 21 Sudoeste 0 -- -- 33
2019-10-06 16:00:00 25.8 4 Sudoeste 17 Oeste 0 -- -- 34
2019-10-06 15:00:00 23.5 8 Sudoeste 14 Sudoeste 0 -- -- 39
2019-10-06 14:00:00 22.6 3 Norte 10 Sudoeste 0 -- -- 42
2019-10-06 13:00:00 19.1 5 Sudoeste 12 Oeste 0 -- -- 52
2019-10-06 12:00:00 17.4 5 Sudoeste 13 Oeste 0 -- -- 57
2019-10-06 11:00:00 14.9 5 Oeste 10 Oeste 0 -- -- 64
2019-10-06 10:00:00 10.8 4 Nordeste 6 Nordeste 0 -- -- 73
2019-10-06 09:00:00 2.9 3 Sudeste 5 Este 0 -- -- 90
2019-10-06 08:00:00 0.4 3 Este 4 Sudeste 0 -- -- 94
2019-10-06 07:00:00 2.8 0 Calma 5 Sudoeste 0 -- -- 94
2019-10-06 06:00:00 1.4 2 Este 6 Este 0 -- -- 96
2019-10-06 05:00:00 2 2 Este 4 Este 0 -- -- 94
2019-10-06 04:00:00 2.1 3 Sudeste 4 Sudeste 0 -- -- 91
2019-10-06 03:00:00 4.1 0 Calma 3 Este 0 -- -- 91
2019-10-06 02:00:00 5.1 0 Calma 6 Sudeste 0 -- -- 84
2019-10-06 01:00:00 5.4 -- -- -- -- 0 -- -- 86
2019-10-06 00:00:00 6.3 3 Este 4 Este 0 -- -- 83
2019-10-05 23:00:00 8.9 2 Este 4 Este 0 -- -- 77
2019-10-05 22:00:00 9.6 0 Calma 6 Sudeste 0 -- -- 75
2019-10-05 21:00:00 13 0 Calma 6 Oeste 0 -- -- 63
2019-10-05 20:00:00 20.5 5 Oeste 16 Noroeste 0 -- -- 45
2019-10-05 19:00:00 24.8 9 Oeste 21 Oeste 0 -- -- 37
2019-10-05 18:00:00 25.6 10 Oeste 22 Oeste 0 -- -- 36
2019-10-05 17:00:00 26.1 10 Oeste 26 Oeste 0 -- -- 35
2019-10-05 16:00:00 26.2 9 Sudoeste 23 Oeste 0 -- -- 36
2019-10-05 15:00:00 24.6 12 Noroeste 18 Oeste 0 -- -- 40
2019-10-05 14:00:00 24.1 9 Noroeste 17 Oeste 0 -- -- 43
2019-10-05 13:00:00 22.3 7 Oeste 12 Noroeste 0 -- -- 50
2019-10-05 12:00:00 20.3 6 Oeste 11 Sudoeste 0 -- -- 56
2019-10-05 11:00:00 16.5 5 Sudoeste 10 Sudoeste 0 -- -- 67
2019-10-05 10:00:00 13.9 0 Calma 4 Este 0 -- -- 74
2019-10-05 09:00:00 5.7 0 Calma -- -- 0 -- -- 94
2019-10-05 08:00:00 3 2 Este 5 Este 0 -- -- 98
2019-10-05 07:00:00 2.5 4 Este 5 Este 0 -- -- 97
2019-10-05 06:00:00 3.3 4 Este 6 Este 0 -- -- 96
2019-10-05 05:00:00 4.2 4 Este 6 Este 0 -- -- 96
2019-10-05 04:00:00 5.3 3 Este 5 Este 0 -- -- 96
2019-10-05 03:00:00 6 3 Sudeste 8 Este 0 -- -- 94
2019-10-05 02:00:00 6.6 0 Calma 8 Nordeste 0 -- -- 95
2019-10-05 01:00:00 7.1 4 Sudeste 7 Este 0 -- -- 91
2019-10-05 00:00:00 8.3 5 Sudeste 7 Este 0 -- -- 90
2019-10-04 23:00:00 9.6 5 Este 8 Este 0 -- -- 88
2019-10-04 22:00:00 10 3 Sudeste 4 Sudeste 0 -- -- 85
2019-10-04 21:00:00 13.5 0 Calma 5 Sudoeste 0 -- -- 76
2019-10-04 20:00:00 20 4 Oeste 18 Oeste 0 -- -- 58
2019-10-04 19:00:00 23.5 9 Oeste 26 Oeste 0 -- -- 49
2019-10-04 18:00:00 23.7 15 Sudoeste 27 Sur 0 -- -- 50
2019-10-04 17:00:00 25 8 Sudoeste 25 Oeste 0 -- -- 45
2019-10-04 16:00:00 24.4 13 Oeste 22 Oeste 0 -- -- 46
2019-10-04 15:00:00 23.8 10 Oeste 24 Oeste 0 -- -- 48
2019-10-04 14:00:00 23 12 Oeste 21 Oeste 0 -- -- 51
2019-10-04 13:00:00 21.4 9 Sudoeste 21 Sudoeste 0 -- -- 59
2019-10-04 12:00:00 19.5 6 Sudoeste 12 Sudoeste 0 -- -- 61
2019-10-04 11:00:00 17.6 3 Oeste 8 Sudoeste 0 -- -- 63
2019-10-04 10:00:00 12.9 3 Sudeste 5 Sudeste 0 -- -- 67
2019-10-04 09:00:00 5 5 Este 6 Este 0 -- -- 83
2019-10-04 08:00:00 1.3 4 Sudeste 4 Sudeste 0 -- -- 88
2019-10-04 07:00:00 1.8 0 Calma 3 Este 0 -- -- 87
2019-10-04 06:00:00 1.9 2 Sudeste 4 Este 0 -- -- 88
2019-10-04 05:00:00 2.3 2 Este 4 Sudeste 0 -- -- 86
2019-10-04 04:00:00 3.4 0 Calma 4 Este 0 -- -- 84
2019-10-04 03:00:00 4.3 0 Calma 4 Sur 0 -- -- 83
2019-10-04 02:00:00 4.5 2 Este 5 Este 0 -- -- 82
2019-10-04 01:00:00 5 4 Este 6 Este 0 -- -- 79
2019-10-04 00:00:00 7.1 2 Nordeste 8 Este 0 -- -- 75
2019-10-03 23:00:00 8.2 2 Este 10 Este 0 -- -- 71
2019-10-03 22:00:00 9.9 4 Este 6 Este 0 -- -- 67
2019-10-03 21:00:00 11.7 0 Calma 4 Sudeste 0 -- -- 61
2019-10-03 20:00:00 19 3 Sudoeste 13 Oeste 0 -- -- 41
2019-10-03 19:00:00 24 8 Oeste 17 Oeste 0 -- -- 31
2019-10-03 18:00:00 24.6 10 Oeste 22 Oeste 0 -- -- 29
2019-10-03 17:00:00 24 12 Oeste 25 Oeste 0 -- -- 31
2019-10-03 16:00:00 24.3 10 Oeste 24 Oeste 0 -- -- 32
2019-10-03 15:00:00 23.5 12 Oeste 24 Oeste 0 -- -- 34
2019-10-03 14:00:00 22.6 10 Oeste 24 Noroeste 0 -- -- 36
2019-10-03 13:00:00 21.5 6 Oeste 14 Oeste 0 -- -- 39
2019-10-03 12:00:00 18.6 6 Oeste 10 Oeste 0 -- -- 46
2019-10-03 11:00:00 14.6 3 Sudoeste 8 Sudoeste 0 -- -- 56
2019-10-03 10:00:00 8.6 4 Este 7 Este 0 -- -- 77
2019-10-03 09:00:00 2.2 2 Este 4 Este 0 -- -- 95
2019-10-03 08:00:00 0.3 2 Este 2 Este 0 -- -- 95
2019-10-03 07:00:00 1.2 0 Calma 5 Este 0 -- -- 94
2019-10-03 06:00:00 2.8 2 Sudeste 5 Nordeste 0 -- -- 95
2019-10-03 05:00:00 3.6 4 Sudeste 11 Este 0 -- -- 90
2019-10-03 04:00:00 3.2 6 Este 12 Nordeste 0 -- -- 93
2019-10-03 03:00:00 6.6 7 Este 11 Sudeste 0 -- -- 82
2019-10-03 02:00:00 5.2 4 Sudeste 10 Este 0 -- -- 86
2019-10-03 01:00:00 7.3 3 Este 13 Este 0 -- -- 79
2019-10-03 00:00:00 8.9 3 Este 9 Este 0 -- -- 75
2019-10-02 23:00:00 8.9 7 Este 13 Este 0 -- -- 70
2019-10-02 22:00:00 9.2 5 Nordeste 12 Norte 0 -- -- 69
2019-10-02 21:00:00 11.1 0 Calma 9 Norte 0 -- -- 59
2019-10-02 20:00:00 16.1 7 Norte 10 Nordeste 0 -- -- 44
2019-10-02 19:00:00 21.4 8 Norte 16 Noroeste 0 -- -- 36
2019-10-02 18:00:00 22 9 Nordeste 17 Nordeste 0 -- -- 36
2019-10-02 17:00:00 22.6 3 Nordeste 20 Norte 0 -- -- 35
2019-10-02 16:00:00 21.3 10 Noroeste 24 Norte 0 -- -- 37
2019-10-02 15:00:00 20.1 12 Noroeste 24 Norte 0 -- -- 40
2019-10-02 14:00:00 18.8 8 Este 15 Sudeste 0 -- -- 47
2019-10-02 13:00:00 17.4 6 Oeste 11 Oeste 0 -- -- 53
2019-10-02 12:00:00 15.9 5 Noroeste 13 Oeste 0 -- -- 59
2019-10-02 11:00:00 13.5 5 Oeste 12 Sudoeste 0 -- -- 72
2019-10-02 10:00:00 9.2 0 Calma 4 Este 0 -- -- 93
2019-10-02 09:00:00 0.9 0 Calma 2 Noroeste 0 -- -- 98
2019-10-02 08:00:00 0.1 0 Calma 3 Sudeste 0 -- -- 98
2019-10-02 07:00:00 0.5 0 Calma 3 Sudeste 0 -- -- 96
2019-10-02 06:00:00 0.8 0 Calma 4 Este 0 -- -- 97
2019-10-02 05:00:00 2.9 0 Calma 4 Este 0 -- -- 95
2019-10-02 04:00:00 2.6 4 Sudeste 6 Este 0 -- -- 93
2019-10-02 03:00:00 4.2 2 Este 3 Nordeste 0 -- -- 92
2019-10-02 02:00:00 5.1 0 Calma 8 Oeste 0 -- -- 88
2019-10-02 01:00:00 9.7 5 Noroeste 8 Oeste 0 -- -- 80
2019-10-02 00:00:00 7.4 0 Calma 5 Este 0 -- -- 79
2019-10-01 23:00:00 10.3 0 Calma 10 Sudoeste 0 -- -- 70
2019-10-01 22:00:00 11 2 Sudoeste 4 Oeste 0 -- -- 74
2019-10-01 21:00:00 14.9 0 Calma 12 Sudoeste 0 -- -- 57
2019-10-01 20:00:00 19.6 8 Sudoeste 24 Sudoeste 0 -- -- 47
2019-10-01 19:00:00 22.5 13 Sudoeste 30 Oeste 0 -- -- 42
2019-10-01 18:00:00 23.2 14 Oeste 33 Oeste 0 -- -- 42
2019-10-01 17:00:00 22 17 Oeste 35 Oeste 0 -- -- 47
2019-10-01 16:00:00 23.4 18 Oeste 33 Oeste 0 -- -- 46
2019-10-01 15:00:00 21.7 18 Oeste 34 Oeste 0 -- -- 52
2019-10-01 14:00:00 21.8 14 Sudoeste 30 Oeste 0 -- -- 51
2019-10-01 13:00:00 20.5 17 Sudoeste 32 Sudoeste 0 -- -- 58
2019-10-01 12:00:00 18.2 12 Oeste 28 Oeste 0 -- -- 68
2019-10-01 11:00:00 16.1 13 Oeste 25 Oeste 0 -- -- 77
2019-10-01 10:00:00 12.5 0 Calma 3 Oeste 0 -- -- 70
2019-10-01 09:00:00 7.9 0 Calma 3 Este 0 -- -- 82
2019-10-01 08:00:00 5.4 0 Calma 4 Este 0 -- -- 84
2019-10-01 07:00:00 5.9 0 Calma 5 Sur 0 -- -- 83
2019-10-01 06:00:00 5.4 0 Calma 4 Este 0 -- -- 86
2019-10-01 05:00:00 5.5 0 Calma 5 Sur 0 -- -- 84
2019-10-01 04:00:00 5.8 0 Calma 4 Este 0 -- -- 83
2019-10-01 03:00:00 6.2 3 Este 4 Este 0 -- -- 81
2019-10-01 02:00:00 7.4 0 Calma 5 Este 0 -- -- 79
2019-10-01 01:00:00 7.8 4 Sudeste 5 Este 0 -- -- 78
2019-10-01 00:00:00 10 2 Este 3 Este 0 -- -- 69
2019-09-30 23:00:00 11.8 0 Calma 5 Este 0 -- -- 67
2019-09-30 22:00:00 13 5 Este 8 Este 0 -- -- 65
2019-09-30 21:00:00 15.3 4 Sudeste 7 Noroeste 0 -- -- 57
2019-09-30 20:00:00 23.6 3 Oeste 14 Oeste 0 -- -- 35
2019-09-30 19:00:00 27.6 9 Oeste 21 Oeste 0 -- -- 29
2019-09-30 18:00:00 28.6 12 Oeste 26 Oeste 0 -- -- 27
2019-09-30 17:00:00 29.2 11 Oeste 21 Noroeste 0 -- -- 27
2019-09-30 16:00:00 28.5 10 Oeste 23 Oeste 0 -- -- 29
2019-09-30 15:00:00 27.1 12 Oeste 22 Oeste 0 -- -- 32
2019-09-30 14:00:00 27.1 5 Norte 13 Oeste 0 -- -- 35
2019-09-30 13:00:00 25 5 Oeste 13 Noroeste 0 -- -- 42
2019-09-30 12:00:00 22.8 5 Este 10 Este 0 -- -- 45
2019-09-30 11:00:00 19.2 5 Este 9 Este 0 -- -- 48
2019-09-30 10:00:00 14.4 6 Este 9 Este 0 -- -- 55
2019-09-30 09:00:00 6.8 3 Sudeste 6 Este 0 -- -- 76
2019-09-30 08:00:00 3.3 3 Este 5 Sudeste 0 -- -- 83
2019-09-30 07:00:00 4.1 2 Sudeste 4 Sudeste 0 -- -- 81
2019-09-30 06:00:00 4.4 3 Este 4 Sudeste 0 -- -- 78
2019-09-30 05:00:00 4.8 4 Sudeste 5 Sudeste 0 -- -- 75
2019-09-30 04:00:00 5.4 3 Este 6 Este 0 -- -- 72
2019-09-30 03:00:00 6.7 3 Este 4 Nordeste 0 -- -- 68
2019-09-30 02:00:00 7.1 3 Este 5 Sudeste 0 -- -- 68
2019-09-30 01:00:00 7.8 3 Este 8 Este 0 -- -- 63
2019-09-30 00:00:00 8.9 2 Este 6 Este 0 -- -- 59
2019-09-29 23:00:00 9.8 2 Este 5 Este 0 -- -- 57
2019-09-29 22:00:00 10.7 4 Este 6 Sudeste 0 -- -- 58
2019-09-29 21:00:00 15 0 Calma 4 Nordeste 0 -- -- 39
2019-09-29 20:00:00 23.7 4 Sudoeste 17 Oeste 0 -- -- 24
2019-09-29 19:00:00 27.8 9 Oeste 20 Sudoeste 0 -- -- 19
2019-09-29 18:00:00 28.8 10 Sudoeste 26 Sudoeste 0 -- -- 19
2019-09-29 17:00:00 28.2 14 Oeste 27 Sudoeste 0 -- -- 24
2019-09-29 16:00:00 28.2 13 Oeste 27 Sudoeste 0 -- -- 25
2019-09-29 15:00:00 26.8 15 Sudoeste 28 Oeste 0 -- -- 29
2019-09-29 14:00:00 26.1 14 Oeste 34 Oeste 0 -- -- 33
2019-09-29 13:00:00 24.3 8 Oeste 18 Noroeste 0 -- -- 33
2019-09-29 12:00:00 22 8 Oeste 13 Oeste 0 -- -- 38
2019-09-29 11:00:00 19.4 5 Oeste 9 Oeste 0 -- -- 42
2019-09-29 10:00:00 14.3 3 Este 5 Este 0 -- -- 58
2019-09-29 09:00:00 7.2 0 Calma 4 Este 0 -- -- 78
2019-09-29 08:00:00 1.4 3 Este 7 Este 0 -- -- 90
2019-09-29 07:00:00 2.8 0 Calma 4 Este 0 -- -- 87
2019-09-29 06:00:00 2.7 4 Este 6 Este 0 -- -- 86
2019-09-29 05:00:00 3.5 5 Este 7 Este 0 -- -- 85
2019-09-29 04:00:00 4.4 4 Este 6 Este 0 -- -- 81
2019-09-29 03:00:00 4.7 5 Este 8 Este 0 -- -- 79
2019-09-29 02:00:00 6.2 0 Calma 7 Este 0 -- -- 74
2019-09-29 01:00:00 6.4 5 Este 7 Este 0 -- -- 74
2019-09-29 00:00:00 7.6 5 Este 9 Sudeste 0 -- -- 70
2019-09-28 23:00:00 8.3 6 Este 8 Este 0 -- -- 67
2019-09-28 22:00:00 10.8 3 Sudeste 4 Sudeste 0 -- -- 57
2019-09-28 21:00:00 13.1 3 Sudeste 9 Noroeste 0 -- -- 55
2019-09-28 20:00:00 22.5 4 Oeste 13 Noroeste 0 -- -- 28
2019-09-28 19:00:00 27.1 8 Oeste 16 Oeste 0 -- -- 24
2019-09-28 18:00:00 28.4 8 Oeste 16 Noroeste 0 -- -- 20
2019-09-28 17:00:00 28 9 Oeste 19 Sudoeste 0 -- -- 24
2019-09-28 16:00:00 27.3 7 Sudoeste 20 Oeste 0 -- -- 25
2019-09-28 15:00:00 26.2 12 Sudoeste 21 Oeste 0 -- -- 26
2019-09-28 14:00:00 25.5 6 Nordeste 12 Norte 0 -- -- 39
2019-09-28 13:00:00 23.8 6 Norte 12 Nordeste 0 -- -- 45
2019-09-28 12:00:00 21.6 3 Sudoeste 7 Sur 0 -- -- 52
2019-09-28 11:00:00 18.2 2 Sur 6 Sudeste 0 -- -- 60
2019-09-28 10:00:00 13.8 3 Este 4 Sudeste 0 -- -- 72
2019-09-28 09:00:00 5.8 2 Este 4 Sudeste 0 -- -- 91
2019-09-28 08:00:00 2.3 3 Sudeste 5 Este 0 -- -- 96
2019-09-28 07:00:00 2.9 4 Este 6 Este 0 -- -- 96
2019-09-28 06:00:00 2.6 4 Este 5 Este 0 -- -- 94
2019-09-28 05:00:00 2.7 4 Sudeste 5 Sudeste 0 -- -- 92
2019-09-28 04:00:00 3.8 0 Calma 0 Calma 0 -- -- 90
2019-09-28 03:00:00 5.5 0 Calma 5 Nordeste 0 -- -- 89
2019-09-28 02:00:00 5.8 5 Este 6 Este 0 -- -- 85
2019-09-28 01:00:00 6.6 2 Este 4 Este 0 -- -- 81
2019-09-28 00:00:00 7.8 0 Calma 5 Este 0 -- -- 76
2019-09-27 23:00:00 8.9 0 Calma 4 Este 0 -- -- 74
2019-09-27 22:00:00 11.6 0 Calma 4 Sudeste 0 -- -- 65
2019-09-27 21:00:00 14.4 0 Calma 7 Oeste 0 -- -- 57
2019-09-27 20:00:00 21.7 5 Oeste 18 Oeste 0 -- -- 38
2019-09-27 19:00:00 23.9 10 Oeste 20 Oeste 0 -- -- 30
2019-09-27 18:00:00 25.5 15 Oeste 26 Noroeste 0 -- -- 27
2019-09-27 17:00:00 26.2 10 Oeste 25 Oeste 0 -- -- 27
2019-09-27 16:00:00 25.5 13 Oeste 27 Oeste 0 -- -- 27
2019-09-27 15:00:00 24.5 15 Oeste 29 Oeste 0 -- -- 29
2019-09-27 14:00:00 23.7 12 Sudoeste 24 Sudoeste 0 -- -- 31
2019-09-27 13:00:00 21.8 10 Sudoeste 24 Sudoeste 0 -- -- 34
2019-09-27 12:00:00 19.5 10 Sudoeste 16 Sudoeste 0 -- -- 50
2019-09-27 11:00:00 17.3 5 Sudoeste 12 Sudoeste 0 -- -- 55
2019-09-27 10:00:00 13.4 2 Sudeste 4 Sudeste 0 -- -- 65
2019-09-27 09:00:00 5 3 Sudeste 4 Sudeste 0 -- -- 86
2019-09-27 08:00:00 1.1 3 Este 4 Este 0 -- -- 94
2019-09-27 07:00:00 1.9 3 Este 5 Este 0 -- -- 92
2019-09-27 06:00:00 2.1 4 Este 5 Este 0 -- -- 89
2019-09-27 05:00:00 3.1 0 Calma 5 Este 0 -- -- 89
2019-09-27 04:00:00 3.3 4 Sudeste 5 Sudeste 0 -- -- 87
2019-09-27 03:00:00 4 2 Este 4 Sudeste 0 -- -- 85
2019-09-27 02:00:00 4.9 3 Este 4 Sudeste 0 -- -- 84
2019-09-27 01:00:00 6.3 3 Sudeste -- -- 0 -- -- 79
2019-09-27 00:00:00 7.3 4 Este 5 Este 0 -- -- 77
2019-09-26 23:00:00 9.2 3 Sudeste 5 Este 0 -- -- 71
2019-09-26 22:00:00 12.5 0 Calma 6 Sudeste 0 -- -- 60
2019-09-26 21:00:00 14.4 4 Sudeste 7 Noroeste 0 -- -- 58
2019-09-26 20:00:00 22.5 5 Oeste 14 Oeste 0 -- -- 33
2019-09-26 19:00:00 25.8 10 Oeste 24 Oeste 0 -- -- 27
2019-09-26 18:00:00 26.5 13 Oeste 28 Noroeste 0 -- -- 26
2019-09-26 17:00:00 26.2 14 Oeste 28 Oeste 0 -- -- 32
2019-09-26 16:00:00 25.8 19 Oeste 29 Oeste 0 -- -- 33
2019-09-26 15:00:00 25.6 13 Oeste 23 Oeste 0 -- -- 37
2019-09-26 14:00:00 25 8 Sudoeste 18 Sur 0 -- -- 42
2019-09-26 13:00:00 22.2 9 Sur 18 Sur 0 -- -- 48
2019-09-26 12:00:00 20.2 9 Sur 14 Sur 0 -- -- 56
2019-09-26 11:00:00 17.8 4 Sudoeste 8 Sudoeste 0 -- -- 64
2019-09-26 10:00:00 15.5 0 Calma 4 Este 0 -- -- 68
2019-09-26 09:00:00 7.9 0 Calma 4 Este 0 -- -- 91
2019-09-26 08:00:00 3.8 3 Este 5 Este 0 -- -- 97
2019-09-26 07:00:00 4 2 Este 4 Este 0 -- -- 96
2019-09-26 06:00:00 4.6 0 Calma 4 Este 0 -- -- 96
2019-09-26 05:00:00 5.1 2 Este 5 Sudeste 0 -- -- 95
2019-09-26 04:00:00 5.5 3 Este 4 Este 0 -- -- 95
2019-09-26 03:00:00 5.8 4 Este 5 Este 0 -- -- 93
2019-09-26 02:00:00 6.8 2 Este 3 Este 0 -- -- 91
2019-09-26 01:00:00 7.7 3 Este 6 Este 0 -- -- 90
2019-09-26 00:00:00 8.3 4 Este 6 Este 0 -- -- 88
2019-09-25 23:00:00 9.8 2 Nordeste 6 Nordeste 0 -- -- 83
2019-09-25 22:00:00 11.1 2 Este 6 Este 0 -- -- 79
2019-09-25 21:00:00 14.7 3 Oeste 9 Oeste 0 -- -- 64
2019-09-25 20:00:00 18.2 5 Oeste 13 Oeste 0 -- -- 53
2019-09-25 19:00:00 20.7 9 Oeste 21 Oeste 0 -- -- 46
2019-09-25 18:00:00 21.2 6 Oeste 17 Oeste 0 -- -- 45
2019-09-25 17:00:00 22 7 Noroeste 18 Oeste 0 -- -- 43
2019-09-25 16:00:00 21.1 9 Sudoeste 21 Oeste 0 -- -- 45
2019-09-25 15:00:00 20.2 7 Oeste 19 Noroeste 0 -- -- 48
2019-09-25 14:00:00 19.1 8 Noroeste 17 Oeste 0 -- -- 49
2019-09-25 13:00:00 17.1 8 Noroeste 21 Noroeste 0 -- -- 56
2019-09-25 12:00:00 16 9 Oeste 18 Oeste 0 -- -- 64
2019-09-25 11:00:00 14.4 7 Sudoeste 13 Sudoeste 0 -- -- 72
2019-09-25 10:00:00 12.2 3 Sudoeste 8 Sudoeste 0 -- -- 91
2019-09-25 09:00:00 5.3 0 Calma 4 Oeste 0 -- -- 97
2019-09-25 08:00:00 3.4 0 Calma 4 Sur 0 -- -- 98
2019-09-25 07:00:00 3.7 0 Calma 4 Sur 0 -- -- 97
2019-09-25 06:00:00 4.9 0 Calma 3 Sudoeste 0 -- -- 97
2019-09-25 05:00:00 5.6 0 Calma 3 Sudeste 0 -- -- 97
2019-09-25 04:00:00 8.2 0 Calma 5 Oeste 0 -- -- 93
2019-09-25 03:00:00 10.2 2 Noroeste 9 Oeste 0 -- -- 89
2019-09-25 02:00:00 11.2 3 Oeste 18 Oeste 0 -- -- 86
2019-09-25 01:00:00 14.6 9 Oeste 16 Oeste 0 -- -- 73
2019-09-25 00:00:00 13.6 5 Sudoeste 10 Sudoeste 0 -- -- 87
2019-09-24 23:00:00 15.9 5 Sudoeste 18 Oeste 0 -- -- 82
2019-09-24 22:00:00 17.6 12 Sudoeste 22 Oeste 0 -- -- 78
2019-09-24 21:00:00 17.9 5 Sur 18 Sudoeste 0 -- -- 82
2019-09-24 20:00:00 19.2 11 Sudoeste 28 Sudoeste 0 -- -- 76
2019-09-24 19:00:00 20.6 12 Sudoeste 26 Sudoeste 0 -- -- 69
2019-09-24 18:00:00 19.5 18 Oeste 38 Oeste 0 -- -- 73
2019-09-24 17:00:00 21.7 13 Oeste 33 Sudoeste 0 -- -- 63
2019-09-24 16:00:00 21.5 19 Oeste 32 Oeste 0 -- -- 62
2019-09-24 15:00:00 21.3 15 Sudoeste 31 Oeste 0 -- -- 61
2019-09-24 14:00:00 21.5 14 Sudoeste 34 Oeste 0 -- -- 59
2019-09-24 13:00:00 19.3 13 Sudoeste 31 Sudoeste 0 -- -- 61
2019-09-24 12:00:00 18.4 12 Sudoeste 24 Sudoeste 0 -- -- 62
2019-09-24 11:00:00 15.6 11 Sudoeste 21 Sudoeste 0 -- -- 71
2019-09-24 10:00:00 15.2 6 Sudoeste 13 Sudoeste 0 -- -- 75
2019-09-24 09:00:00 8.5 2 Oeste 8 Sur 0 -- -- 93
2019-09-24 08:00:00 4.7 2 Nordeste 6 Nordeste 0 -- -- 98
2019-09-24 07:00:00 3.6 0 Calma 3 Este 0 -- -- 98
2019-09-24 06:00:00 4.3 3 Este 4 Este 0 -- -- 97
2019-09-24 05:00:00 4.8 2 Sudeste 4 Este 0 -- -- 96
2019-09-24 04:00:00 5.6 2 Este 5 Este 0 -- -- 95
2019-09-24 03:00:00 6.5 3 Este 5 Este 0 -- -- 95
2019-09-24 02:00:00 6.8 3 Este 5 Este 0 -- -- 92
2019-09-24 01:00:00 7.4 0 Calma 8 Sudoeste 0 -- -- 91
2019-09-24 00:00:00 9.6 0 Calma 4 Noroeste 0 -- -- 88
2019-09-23 23:00:00 9.9 4 Este 10 Sudeste 0 -- -- 86
2019-09-23 22:00:00 11.5 0 Calma 3 Sudeste 0 -- -- 79
2019-09-23 21:00:00 14.6 0 Calma 6 Sudoeste 0 -- -- 66
2019-09-23 20:00:00 19.9 5 Oeste 17 Sudoeste 0 -- -- 48
2019-09-23 19:00:00 22 12 Oeste 20 Oeste 0 -- -- 42
2019-09-23 18:00:00 21.8 12 Oeste 18 Oeste 0 -- -- 42
2019-09-23 17:00:00 22.4 7 Oeste 18 Oeste 0 -- -- 42
2019-09-23 16:00:00 21.5 9 Sudoeste 19 Sur 0 -- -- 46
2019-09-23 15:00:00 20.7 7 Oeste 19 Oeste 0 -- -- 49
2019-09-23 14:00:00 19.8 6 Sudoeste 40 Sudoeste 0 -- -- 51
2019-09-23 13:00:00 18.3 8 Sudoeste 14 Sur 0 -- -- 58
2019-09-23 12:00:00 16.2 5 Sudoeste 14 Oeste 0 -- -- 66
2019-09-23 11:00:00 14.6 3 Sur 6 Oeste 0 -- -- 73
2019-09-23 10:00:00 12.8 0 Calma 6 Este 0 -- -- 77
2019-09-23 09:00:00 5 2 Este 4 Este 0 -- -- 96
2019-09-23 08:00:00 2 2 Este 3 Sudeste 0 -- -- 99
2019-09-23 07:00:00 2.5 0 Calma 4 Sudeste 0 -- -- 98
2019-09-23 06:00:00 2.6 3 Este 4 Este 0 -- -- 98
2019-09-23 05:00:00 3.3 0 Calma 6 Sudeste 0 -- -- 99
2019-09-23 04:00:00 3.4 0 Calma 3 Nordeste 0 -- -- 97
2019-09-23 03:00:00 3.8 0 Calma 4 Este 0 -- -- 97
2019-09-23 02:00:00 4.8 2 Sudeste 3 Este 0 -- -- 97
2019-09-23 01:00:00 5.7 0 Calma 4 Sudeste 0 -- -- 96
2019-09-23 00:00:00 6.1 3 Este 4 Este 0 -- -- 94
2019-09-22 23:00:00 8 3 Este 5 Este 0 -- -- 92
2019-09-22 22:00:00 9 4 Este 5 Este 0 -- -- 85
2019-09-22 21:00:00 13 2 Oeste 10 Sudoeste 0 -- -- 70
2019-09-22 20:00:00 17.5 6 Oeste 19 Sudoeste 0 -- -- 56
2019-09-22 19:00:00 18.7 8 Oeste 28 Sudoeste 0 -- -- 53
2019-09-22 18:00:00 18.7 12 Oeste 27 Sudoeste 0 -- -- 52
2019-09-22 17:00:00 20.5 16 Sudoeste 29 Sudoeste 0 -- -- 49
2019-09-22 16:00:00 18.8 13 Noroeste 30 Noroeste 0 -- -- 56
2019-09-22 15:00:00 18.5 15 Oeste 27 Sudoeste 0 -- -- 56
2019-09-22 14:00:00 17 13 Oeste 22 Sudoeste 0 -- -- 64
2019-09-22 13:00:00 15.9 9 Sudoeste 21 Oeste 0 -- -- 69
2019-09-22 12:00:00 15.8 9 Sudoeste 19 Oeste 0 -- -- 74
2019-09-22 11:00:00 14.3 6 Sudoeste 15 Sur 0 -- -- 83
2019-09-22 10:00:00 13 7 Sur 13 Sur 0 -- -- 93
2019-09-22 09:00:00 11.7 6 Sudoeste 14 Sur 0 -- -- 97
2019-09-22 08:00:00 11.5 8 Sur 14 Sur 0 -- -- 98
2019-09-22 07:00:00 11.4 3 Sudoeste 12 Sudoeste 0.2 -- -- 98
2019-09-22 06:00:00 11.2 5 Sudoeste 10 Sudoeste 0.2 -- -- 97
2019-09-22 05:00:00 11.2 8 Sudoeste 26 Oeste 1 -- -- 97
2019-09-22 04:00:00 11.6 20 Oeste 40 Oeste 1.8 -- -- 95
2019-09-22 03:00:00 16.6 14 Sudoeste 30 Sur 0.6 -- -- 84
2019-09-22 02:00:00 17.8 21 Sur 33 Sur 0 -- -- 75
2019-09-22 01:00:00 17.1 6 Sur 15 Sur 0 -- -- 73
2019-09-22 00:00:00 16.9 6 Sur 14 Sur 0 -- -- 75
2019-09-21 23:00:00 16.6 7 Sur 19 Sur 0 -- -- 76
2019-09-21 22:00:00 17.2 9 Sur 26 Sur 0 -- -- 74
2019-09-21 21:00:00 18.1 11 Sur 24 Sur 0 -- -- 72
2019-09-21 20:00:00 18.9 13 Sur 27 Sur 0 -- -- 68
2019-09-21 19:00:00 19.1 19 Sur 37 Sur 0 -- -- 67
2019-09-21 18:00:00 18.6 8 Sur 15 Sudeste 0 -- -- 78
2019-09-21 17:00:00 16.7 6 Sudeste 27 Sudoeste 0.2 -- -- 89
2019-09-21 16:00:00 17.7 12 Sudoeste 29 Sudoeste 0.2 -- -- 79
2019-09-21 15:00:00 18.1 13 Sudoeste 27 Sur 0 -- -- 76
2019-09-21 14:00:00 19.7 18 Sudoeste 36 Sur 0 -- -- 63
2019-09-21 13:00:00 21.7 10 Sudoeste 31 Sur 0 -- -- 52
2019-09-21 12:00:00 21.3 14 Sudoeste 24 Sur 0 -- -- 54
2019-09-21 11:00:00 19.2 12 Sudoeste 24 Sudoeste 0 -- -- 60
2019-09-21 10:00:00 16.9 0 Calma 8 Este 0 -- -- 73
2019-09-21 09:00:00 12.2 3 Este 8 Este 0 -- -- 93
2019-09-21 08:00:00 7.4 5 Este 6 Este 0 -- -- 98
2019-09-21 07:00:00 8.3 0 Calma 4 Este 0 -- -- 95
2019-09-21 06:00:00 9.4 0 Calma 3 Sudeste 0 -- -- 94
2019-09-21 05:00:00 11.8 0 Calma 6 Este 0 -- -- 93
2019-09-21 04:00:00 12.7 2 Este 5 Sudeste 0 -- -- 90
2019-09-21 03:00:00 13.8 2 Este 8 Este 0 -- -- 86
2019-09-21 02:00:00 14.5 6 Este 9 Este 0 -- -- 82
2019-09-21 01:00:00 15.2 5 Este 13 Este 0 -- -- 76
2019-09-21 00:00:00 17.3 10 Este 15 Este 0 -- -- 64
2019-09-20 23:00:00 18.5 0 Calma 21 Sudeste 0 -- -- 62
2019-09-20 22:00:00 20.1 16 Sudeste 27 Sur 0 -- -- 51
2019-09-20 21:00:00 19.5 3 Sudeste 9 Sur 0 -- -- 57
2019-09-20 20:00:00 22.9 7 Sur 24 Sur 0 -- -- 47
2019-09-20 19:00:00 24.7 18 Sur 31 Sur 0 -- -- 44
2019-09-20 18:00:00 26.5 17 Sur 38 Sur 0 -- -- 39
2019-09-20 17:00:00 26.6 23 Sur 48 Sudoeste 0 -- -- 38
2019-09-20 16:00:00 26 24 Sur 43 Sur 0 -- -- 43
2019-09-20 15:00:00 26.3 22 Sur 39 Sur 0 -- -- 43
2019-09-20 14:00:00 25.7 18 Sur 33 Sur 0 -- -- 46
2019-09-20 13:00:00 24.7 18 Sur 33 Sur 0 -- -- 48
2019-09-20 12:00:00 24 17 Sur 29 Sur 0 -- -- 47
2019-09-20 11:00:00 21.9 3 Sur 8 Este 0 -- -- 61
2019-09-20 10:00:00 17.7 0 Calma 3 Sur 0 -- -- 77
2019-09-20 09:00:00 13.7 3 Sudeste 4 Sudeste 0 -- -- 95
2019-09-20 08:00:00 10.2 3 Sudeste 6 Este 0 -- -- 96
2019-09-20 07:00:00 9.7 2 Este 5 Este 0 -- -- 95
2019-09-20 06:00:00 11.7 0 Calma 6 Este 0 -- -- 90
2019-09-20 05:00:00 12.2 4 Este 8 Nordeste 0 -- -- 90
2019-09-20 04:00:00 11.5 6 Nordeste 9 Este 0 -- -- 93
2019-09-20 03:00:00 12.1 7 Este 12 Este 0 -- -- 90
2019-09-20 02:00:00 13.2 6 Este 9 Este 0 -- -- 88
2019-09-20 01:00:00 13.8 5 Este 10 Este 0 -- -- 85
2019-09-20 00:00:00 15 7 Este 9 Este 0 -- -- 81
2019-09-19 23:00:00 14.3 6 Este 11 Este 0 -- -- 82
2019-09-19 22:00:00 16.9 0 Calma 7 Este 0 -- -- 69
2019-09-19 21:00:00 20.5 6 Este 9 Sudeste 0 -- -- 55
2019-09-19 20:00:00 24.3 5 Nordeste 14 Nordeste 0 -- -- 42
2019-09-19 19:00:00 25.9 9 Nordeste 18 Norte 0 -- -- 37
2019-09-19 18:00:00 25.8 10 Norte 21 Norte 0 -- -- 38
2019-09-19 17:00:00 28.6 12 Norte 20 Norte 0 -- -- 35
2019-09-19 16:00:00 28.7 4 Norte 20 Norte 0 -- -- 36
2019-09-19 15:00:00 27.6 11 Norte 28 Nordeste 0 -- -- 40
2019-09-19 14:00:00 25.8 10 Norte 17 Norte 0 -- -- 46
2019-09-19 13:00:00 25.9 5 Este 18 Este 0 -- -- 48
2019-09-19 12:00:00 24.4 4 Este 10 Sudeste 0 -- -- 54
2019-09-19 11:00:00 20.8 4 Sudeste 10 Sudeste 0 -- -- 68
2019-09-19 10:00:00 17.2 5 Sudeste 8 Este 0 -- -- 81
2019-09-19 09:00:00 11.6 2 Este 4 Sudeste 0 -- -- 95
2019-09-19 08:00:00 7.4 4 Sudeste 6 Este 0 -- -- 98
2019-09-19 07:00:00 9.5 3 Este 6 Sudeste 0 -- -- 99
2019-09-19 06:00:00 8.5 6 Este 8 Este 0 -- -- 98
2019-09-19 05:00:00 9.6 2 Sudeste 5 Sudeste 0 -- -- 97
2019-09-19 04:00:00 10.2 3 Este 6 Sudeste 0 -- -- 95
2019-09-19 03:00:00 9.7 5 Sudeste 7 Sudeste 0 -- -- 94
2019-09-19 02:00:00 11.6 5 Este 12 Nordeste 0 -- -- 90
2019-09-19 01:00:00 11.7 4 Este 8 Nordeste 0 -- -- 92
2019-09-19 00:00:00 11.8 6 Este 8 Este 0 -- -- 90
2019-09-18 23:00:00 13.5 3 Este 6 Sur 0 -- -- 85
2019-09-18 22:00:00 16.9 3 Nordeste 10 Norte 0 -- -- 73
2019-09-18 21:00:00 18.5 9 Norte 12 Norte 0 -- -- 68
2019-09-18 20:00:00 23 9 Norte 17 Norte 0 -- -- 51
2019-09-18 19:00:00 23.8 11 Norte 18 Nordeste 0 -- -- 48
2019-09-18 18:00:00 25.9 9 Norte 16 Noroeste 0 -- -- 42
2019-09-18 17:00:00 25.9 10 Noroeste 16 Noroeste 0 -- -- 40
2019-09-18 16:00:00 25.5 11 Norte 18 Noroeste 0 -- -- 41
2019-09-18 15:00:00 24.2 11 Norte 19 Noroeste 0 -- -- 45
2019-09-18 14:00:00 24.3 6 Noroeste 15 Noroeste 0 -- -- 49
2019-09-18 13:00:00 23.5 6 Norte 14 Nordeste 0 -- -- 52
2019-09-18 12:00:00 22.5 9 Norte 15 Norte 0 -- -- 56
2019-09-18 11:00:00 19 2 Oeste 5 Noroeste 0 -- -- 76
2019-09-18 10:00:00 15.3 3 Sudoeste 5 Sur 0 -- -- 92
2019-09-18 09:00:00 13.8 0 Calma 4 Sudoeste 0 -- -- 95
2019-09-18 08:00:00 13.4 0 Calma 8 Sudeste 0 -- -- 96
2019-09-18 07:00:00 13.6 2 Sudeste 12 Nordeste 0 -- -- 94
2019-09-18 06:00:00 14 3 Nordeste 13 Norte 0 -- -- 92
2019-09-18 05:00:00 14.4 10 Norte 21 Norte 0 -- -- 91
2019-09-18 04:00:00 14.1 2 Este 9 Nordeste 0 -- -- 93
2019-09-18 03:00:00 14.1 8 Nordeste 17 Nordeste 0 -- -- 92
2019-09-18 02:00:00 13.9 5 Este 19 Nordeste 0 -- -- 93
2019-09-18 01:00:00 14.5 6 Nordeste 13 Nordeste 0 -- -- 91
2019-09-18 00:00:00 14.1 8 Este 19 Sudeste 0 -- -- 92
2019-09-17 23:00:00 14.5 8 Oeste 29 Oeste 1.6 -- -- 93
2019-09-17 22:00:00 15.1 14 Oeste 50 Sur 0.8 -- -- 90
2019-09-17 21:00:00 22.3 14 Sur 27 Sur 0 -- -- 48
2019-09-15 18:00:00 -- -- -- -- -- -- -- -- --
2019-09-15 17:00:00 21.5 21 Este 28 Este 0 -- -- 68
2019-09-15 16:00:00 18.4 13 Nordeste 20 Nordeste 1 -- -- 90
2019-09-15 15:00:00 16.8 12 Este 24 Este 0.4 -- -- 87
2019-09-15 14:00:00 18.1 16 Nordeste 23 Nordeste 0 -- -- 82
2019-09-15 13:00:00 15.4 9 Este 19 Nordeste 1.8 -- -- 91
2019-09-15 12:00:00 16.1 13 Este 24 Este 0.8 -- -- 84
2019-09-15 11:00:00 17.5 14 Este 21 Este 0 -- -- 77
2019-09-15 10:00:00 16.5 15 Nordeste 24 Nordeste 0 -- -- 80
2019-09-15 09:00:00 15.1 8 Este 22 Nordeste 0 -- -- 90
2019-09-15 08:00:00 13.6 8 Este 18 Este 1.6 -- -- 96
2019-09-15 07:00:00 14 11 Este 18 Este 1.4 -- -- 91
2019-09-15 06:00:00 15.7 11 Nordeste 17 Nordeste 0 -- -- 77
2019-09-15 05:00:00 15.5 10 Nordeste 21 Norte 0 -- -- 81
2019-09-15 04:00:00 14.9 10 Este 17 Este 0 -- -- 87
2019-09-15 03:00:00 14.2 9 Nordeste 19 Nordeste 0 -- -- 89
2019-09-15 02:00:00 14.9 18 Norte 23 Norte 0 -- -- 88
2019-09-15 01:00:00 13.9 6 Este 12 Este 0 -- -- 93
2019-09-15 00:00:00 14.3 3 Noroeste 6 Noroeste 0 -- -- 94